sensor_id;sensor_type;location;lat;lon;timestamp;P1;durP1;ratioP1;P2;durP2;ratioP2
41141;SDS011;63666;52.284;20.890;2023-06-14T12:35:10;7.00;;;3.60;;
41141;SDS011;63666;52.284;20.890;2023-06-14T12:37:44;7.40;;;3.60;;
41141;SDS011;63666;52.284;20.890;2023-06-14T12:40:18;5.80;;;3.40;;
41141;SDS011;63666;52.284;20.890;2023-06-14T12:42:53;6.30;;;3.30;;
41141;SDS011;63666;52.284;20.890;2023-06-14T12:45:26;6.10;;;3.30;;
41141;SDS011;63666;52.284;20.890;2023-06-14T12:47:59;6.80;;;3.30;;
41141;SDS011;63666;52.284;20.890;2023-06-14T12:50:33;5.90;;;3.30;;
41141;SDS011;63666;52.284;20.890;2023-06-14T12:53:08;5.90;;;3.30;;
41141;SDS011;63666;52.284;20.890;2023-06-14T12:55:43;6.20;;;3.20;;
41141;SDS011;63666;52.284;20.890;2023-06-14T12:58:16;6.40;;;3.20;;
41141;SDS011;63666;52.284;20.890;2023-06-14T13:00:50;5.20;;;3.20;;
41141;SDS011;63666;52.284;20.890;2023-06-14T13:03:24;6.50;;;3.20;;
41141;SDS011;63666;52.284;20.890;2023-06-14T13:05:57;5.70;;;2.90;;
41141;SDS011;63666;52.284;20.890;2023-06-14T13:08:31;6.40;;;3.10;;
41141;SDS011;63666;52.284;20.890;2023-06-14T13:11:04;4.80;;;3.10;;
41141;SDS011;63666;52.284;20.890;2023-06-14T13:13:37;5.50;;;3.30;;
41141;SDS011;63666;52.284;20.890;2023-06-14T13:16:11;5.30;;;3.30;;
41141;SDS011;63666;52.284;20.890;2023-06-14T13:18:45;6.00;;;3.30;;
41141;SDS011;63666;52.284;20.890;2023-06-14T13:21:21;5.50;;;2.80;;
41141;SDS011;63666;52.284;20.890;2023-06-14T13:23:55;5.40;;;3.20;;
41141;SDS011;63666;52.284;20.890;2023-06-14T13:26:28;5.70;;;3.20;;
41141;SDS011;63666;52.284;20.890;2023-06-14T13:29:02;5.60;;;3.10;;
41141;SDS011;63666;52.284;20.890;2023-06-14T13:31:36;6.60;;;3.20;;
41141;SDS011;63666;52.284;20.890;2023-06-14T13:34:09;5.30;;;3.20;;
41141;SDS011;63666;52.284;20.890;2023-06-14T13:36:45;6.40;;;3.20;;
41141;SDS011;63666;52.284;20.890;2023-06-14T13:39:18;4.50;;;3.10;;
41141;SDS011;63666;52.284;20.890;2023-06-14T13:41:52;6.50;;;3.40;;
41141;SDS011;63666;52.284;20.890;2023-06-14T13:44:25;4.90;;;2.80;;
41141;SDS011;63666;52.284;20.890;2023-06-14T13:46:59;5.10;;;3.20;;
41141;SDS011;63666;52.284;20.890;2023-06-14T13:49:32;5.00;;;3.10;;
41141;SDS011;63666;52.284;20.890;2023-06-14T13:52:07;6.90;;;3.20;;
41141;SDS011;63666;52.284;20.890;2023-06-14T13:54:42;7.20;;;3.30;;
41141;SDS011;63666;52.284;20.890;2023-06-14T13:57:19;5.70;;;3.40;;
41141;SDS011;63666;52.284;20.890;2023-06-14T13:59:52;5.70;;;3.40;;
41141;SDS011;63666;52.284;20.890;2023-06-14T14:02:32;5.40;;;3.40;;
41141;SDS011;63666;52.284;20.890;2023-06-14T14:05:09;6.00;;;3.50;;
41141;SDS011;63666;52.284;20.890;2023-06-14T14:07:42;6.70;;;3.50;;
41141;SDS011;63666;52.284;20.890;2023-06-14T14:10:16;5.80;;;3.50;;
41141;SDS011;63666;52.284;20.890;2023-06-14T14:12:50;5.10;;;3.00;;
41141;SDS011;63666;52.284;20.890;2023-06-14T14:15:25;5.50;;;3.30;;
41141;SDS011;63666;52.284;20.890;2023-06-14T14:17:59;5.80;;;3.30;;
41141;SDS011;63666;52.284;20.890;2023-06-14T14:20:36;5.20;;;3.10;;
41141;SDS011;63666;52.284;20.890;2023-06-14T14:23:10;6.50;;;3.40;;
41141;SDS011;63666;52.284;20.890;2023-06-14T14:25:44;7.30;;;3.70;;
41141;SDS011;63666;52.284;20.890;2023-06-14T14:28:17;6.60;;;3.70;;
41141;SDS011;63666;52.284;20.890;2023-06-14T14:30:51;5.90;;;3.50;;
41141;SDS011;63666;52.284;20.890;2023-06-14T14:33:26;6.40;;;3.60;;
41141;SDS011;63666;52.284;20.890;2023-06-14T14:35:59;7.20;;;3.80;;
41141;SDS011;63666;52.284;20.890;2023-06-14T14:38:35;7.50;;;3.90;;
41141;SDS011;63666;52.284;20.890;2023-06-14T14:41:08;6.30;;;3.60;;
41141;SDS011;63666;52.284;20.890;2023-06-14T14:43:42;5.40;;;3.30;;
41141;SDS011;63666;52.284;20.890;2023-06-14T14:46:15;6.10;;;3.30;;
41141;SDS011;63666;52.284;20.890;2023-06-14T14:48:49;5.90;;;3.70;;
41141;SDS011;63666;52.284;20.890;2023-06-14T14:51:24;6.50;;;3.40;;
41141;SDS011;63666;52.284;20.890;2023-06-14T14:53:57;5.80;;;3.70;;
41141;SDS011;63666;52.284;20.890;2023-06-14T14:56:31;5.50;;;3.50;;
41141;SDS011;63666;52.284;20.890;2023-06-14T14:59:08;5.40;;;3.30;;
41141;SDS011;63666;52.284;20.890;2023-06-14T15:01:44;6.80;;;3.50;;
41141;SDS011;63666;52.284;20.890;2023-06-14T15:04:18;6.50;;;3.30;;
41141;SDS011;63666;52.284;20.890;2023-06-14T15:06:51;6.40;;;3.70;;
41141;SDS011;63666;52.284;20.890;2023-06-14T15:09:25;6.50;;;3.40;;
41141;SDS011;63666;52.284;20.890;2023-06-14T15:11:58;5.50;;;3.40;;
41141;SDS011;63666;52.284;20.890;2023-06-14T15:14:33;5.80;;;3.30;;
41141;SDS011;63666;52.284;20.890;2023-06-14T15:17:10;5.90;;;3.40;;
41141;SDS011;63666;52.284;20.890;2023-06-14T15:19:43;6.30;;;3.20;;
41141;SDS011;63666;52.284;20.890;2023-06-14T15:22:18;7.80;;;3.80;;
41141;SDS011;63666;52.284;20.890;2023-06-14T15:24:51;7.00;;;3.50;;
41141;SDS011;63666;52.284;20.890;2023-06-14T15:27:25;6.90;;;3.60;;
41141;SDS011;63666;52.284;20.890;2023-06-14T15:29:59;6.60;;;3.30;;
41141;SDS011;63666;52.284;20.890;2023-06-14T15:32:33;6.30;;;3.30;;
41141;SDS011;63666;52.284;20.890;2023-06-14T15:35:10;7.00;;;3.30;;
41141;SDS011;63666;52.284;20.890;2023-06-14T15:37:49;5.90;;;3.10;;
41141;SDS011;63666;52.284;20.890;2023-06-14T15:40:23;6.80;;;3.70;;
41141;SDS011;63666;52.284;20.890;2023-06-14T15:42:57;5.10;;;3.10;;
41141;SDS011;63666;52.284;20.890;2023-06-14T15:45:32;5.80;;;3.40;;
41141;SDS011;63666;52.284;20.890;2023-06-14T15:48:08;6.60;;;3.50;;
41141;SDS011;63666;52.284;20.890;2023-06-14T15:50:41;7.20;;;3.70;;
41141;SDS011;63666;52.284;20.890;2023-06-14T15:53:16;5.60;;;3.20;;
41141;SDS011;63666;52.284;20.890;2023-06-14T15:55:50;7.00;;;3.30;;
41141;SDS011;63666;52.284;20.890;2023-06-14T15:58:26;5.70;;;3.20;;
41141;SDS011;63666;52.284;20.890;2023-06-14T16:00:59;6.70;;;3.40;;
41141;SDS011;63666;52.284;20.890;2023-06-14T16:03:33;6.30;;;3.10;;
41141;SDS011;63666;52.284;20.890;2023-06-14T16:06:09;6.30;;;3.00;;
41141;SDS011;63666;52.284;20.890;2023-06-14T16:08:43;5.90;;;3.50;;
41141;SDS011;63666;52.284;20.890;2023-06-14T16:11:17;5.70;;;3.20;;
41141;SDS011;63666;52.284;20.890;2023-06-14T16:13:50;6.30;;;2.90;;
41141;SDS011;63666;52.284;20.890;2023-06-14T16:16:24;6.40;;;3.10;;
41141;SDS011;63666;52.284;20.890;2023-06-14T16:18:58;5.30;;;2.80;;
41141;SDS011;63666;52.284;20.890;2023-06-14T16:21:31;5.40;;;3.00;;
41141;SDS011;63666;52.284;20.890;2023-06-14T16:24:08;5.60;;;2.90;;
41141;SDS011;63666;52.284;20.890;2023-06-14T16:26:45;5.00;;;3.10;;
41141;SDS011;63666;52.284;20.890;2023-06-14T16:29:18;5.30;;;3.10;;
41141;SDS011;63666;52.284;20.890;2023-06-14T16:31:52;5.50;;;3.00;;
41141;SDS011;63666;52.284;20.890;2023-06-14T16:34:25;4.50;;;2.70;;
41141;SDS011;63666;52.284;20.890;2023-06-14T16:37:00;6.20;;;3.10;;
41141;SDS011;63666;52.284;20.890;2023-06-14T16:39:38;6.40;;;3.30;;
41141;SDS011;63666;52.284;20.890;2023-06-14T16:42:11;6.00;;;3.00;;
41141;SDS011;63666;52.284;20.890;2023-06-14T16:44:44;6.70;;;2.90;;
41141;SDS011;63666;52.284;20.890;2023-06-14T16:47:20;5.30;;;3.10;;
41141;SDS011;63666;52.284;20.890;2023-06-14T16:49:53;5.90;;;3.10;;
41141;SDS011;63666;52.284;20.890;2023-06-14T16:52:26;5.60;;;3.10;;
41141;SDS011;63666;52.284;20.890;2023-06-14T16:54:59;5.90;;;3.20;;
41141;SDS011;63666;52.284;20.890;2023-06-14T16:57:34;5.30;;;3.00;;
41141;SDS011;63666;52.284;20.890;2023-06-14T17:00:09;5.30;;;3.00;;
41141;SDS011;63666;52.284;20.890;2023-06-14T17:02:47;5.60;;;3.10;;
41141;SDS011;63666;52.284;20.890;2023-06-14T17:05:25;6.00;;;3.00;;
41141;SDS011;63666;52.284;20.890;2023-06-14T17:07:59;6.10;;;3.20;;
41141;SDS011;63666;52.284;20.890;2023-06-14T17:10:35;5.50;;;3.00;;
41141;SDS011;63666;52.284;20.890;2023-06-14T17:13:08;5.10;;;2.90;;
41141;SDS011;63666;52.284;20.890;2023-06-14T17:15:41;5.10;;;3.10;;
41141;SDS011;63666;52.284;20.890;2023-06-14T17:18:16;5.20;;;3.00;;
41141;SDS011;63666;52.284;20.890;2023-06-14T17:20:49;5.40;;;3.30;;
41141;SDS011;63666;52.284;20.890;2023-06-14T17:23:22;5.50;;;2.90;;
41141;SDS011;63666;52.284;20.890;2023-06-14T17:25:55;4.70;;;2.90;;
41141;SDS011;63666;52.284;20.890;2023-06-14T17:28:29;6.40;;;3.40;;
41141;SDS011;63666;52.284;20.890;2023-06-14T17:31:02;5.30;;;3.00;;
41141;SDS011;63666;52.284;20.890;2023-06-14T17:33:36;5.20;;;3.00;;
41141;SDS011;63666;52.284;20.890;2023-06-14T17:36:09;5.20;;;2.90;;
41141;SDS011;63666;52.284;20.890;2023-06-14T17:38:45;4.70;;;2.90;;
41141;SDS011;63666;52.284;20.890;2023-06-14T17:41:19;5.10;;;3.20;;
41141;SDS011;63666;52.284;20.890;2023-06-14T17:43:54;4.90;;;3.00;;
41141;SDS011;63666;52.284;20.890;2023-06-14T17:46:29;5.40;;;2.80;;
41141;SDS011;63666;52.284;20.890;2023-06-14T17:49:02;5.60;;;3.00;;
41141;SDS011;63666;52.284;20.890;2023-06-14T17:51:36;5.30;;;3.00;;
41141;SDS011;63666;52.284;20.890;2023-06-14T17:54:10;4.90;;;3.10;;
41141;SDS011;63666;52.284;20.890;2023-06-14T17:56:47;5.30;;;3.10;;
41141;SDS011;63666;52.284;20.890;2023-06-14T17:59:22;6.00;;;3.10;;
41141;SDS011;63666;52.284;20.890;2023-06-14T18:01:56;5.70;;;3.30;;
41141;SDS011;63666;52.284;20.890;2023-06-14T18:04:29;5.30;;;3.40;;
41141;SDS011;63666;52.284;20.890;2023-06-14T18:07:03;5.10;;;3.50;;
41141;SDS011;63666;52.284;20.890;2023-06-14T18:09:37;4.90;;;3.40;;
41141;SDS011;63666;52.284;20.890;2023-06-14T18:12:11;5.30;;;3.40;;
41141;SDS011;63666;52.284;20.890;2023-06-14T18:14:47;4.90;;;3.10;;
41141;SDS011;63666;52.284;20.890;2023-06-14T18:17:20;5.80;;;3.70;;
41141;SDS011;63666;52.284;20.890;2023-06-14T18:19:53;5.70;;;3.60;;
41141;SDS011;63666;52.284;20.890;2023-06-14T18:22:28;5.90;;;3.60;;
41141;SDS011;63666;52.284;20.890;2023-06-14T18:25:02;5.30;;;3.40;;
41141;SDS011;63666;52.284;20.890;2023-06-14T18:27:39;5.10;;;3.30;;
41141;SDS011;63666;52.284;20.890;2023-06-14T18:30:13;6.20;;;3.50;;
41141;SDS011;63666;52.284;20.890;2023-06-14T18:32:47;5.30;;;3.40;;
41141;SDS011;63666;52.284;20.890;2023-06-14T18:35:21;5.80;;;3.60;;
41141;SDS011;63666;52.284;20.890;2023-06-14T18:37:55;5.90;;;4.00;;
41141;SDS011;63666;52.284;20.890;2023-06-14T18:40:28;6.60;;;4.20;;
41141;SDS011;63666;52.284;20.890;2023-06-14T18:43:02;6.20;;;3.80;;
41141;SDS011;63666;52.284;20.890;2023-06-14T18:45:35;5.50;;;3.80;;
41141;SDS011;63666;52.284;20.890;2023-06-14T18:48:08;5.40;;;3.70;;
41141;SDS011;63666;52.284;20.890;2023-06-14T18:50:42;5.60;;;3.80;;
41141;SDS011;63666;52.284;20.890;2023-06-14T18:53:15;5.70;;;3.70;;
41141;SDS011;63666;52.284;20.890;2023-06-14T18:55:50;5.80;;;3.80;;
41141;SDS011;63666;52.284;20.890;2023-06-14T18:58:23;5.90;;;3.70;;
41141;SDS011;63666;52.284;20.890;2023-06-14T19:00:57;5.70;;;3.80;;
41141;SDS011;63666;52.284;20.890;2023-06-14T19:03:35;5.30;;;3.80;;
41141;SDS011;63666;52.284;20.890;2023-06-14T19:06:09;6.10;;;3.80;;
41141;SDS011;63666;52.284;20.890;2023-06-14T19:08:43;7.00;;;3.70;;
41141;SDS011;63666;52.284;20.890;2023-06-14T19:11:18;5.90;;;3.60;;
41141;SDS011;63666;52.284;20.890;2023-06-14T19:13:52;5.80;;;3.50;;
41141;SDS011;63666;52.284;20.890;2023-06-14T19:16:29;5.70;;;3.50;;
41141;SDS011;63666;52.284;20.890;2023-06-14T19:19:03;5.90;;;3.80;;
41141;SDS011;63666;52.284;20.890;2023-06-14T19:21:38;6.40;;;3.90;;
41141;SDS011;63666;52.284;20.890;2023-06-14T19:24:16;5.90;;;3.60;;
41141;SDS011;63666;52.284;20.890;2023-06-14T19:26:49;6.50;;;3.90;;
41141;SDS011;63666;52.284;20.890;2023-06-14T19:29:24;6.50;;;3.90;;
41141;SDS011;63666;52.284;20.890;2023-06-14T19:31:58;6.40;;;3.80;;
41141;SDS011;63666;52.284;20.890;2023-06-14T19:34:32;6.40;;;3.70;;
41141;SDS011;63666;52.284;20.890;2023-06-14T19:37:08;6.20;;;3.70;;
41141;SDS011;63666;52.284;20.890;2023-06-14T19:39:41;6.80;;;3.70;;
41141;SDS011;63666;52.284;20.890;2023-06-14T19:42:15;7.00;;;4.10;;
41141;SDS011;63666;52.284;20.890;2023-06-14T19:44:48;6.10;;;4.20;;
41141;SDS011;63666;52.284;20.890;2023-06-14T19:47:24;6.10;;;4.00;;
41141;SDS011;63666;52.284;20.890;2023-06-14T19:49:58;6.40;;;4.10;;
41141;SDS011;63666;52.284;20.890;2023-06-14T19:52:31;7.30;;;4.00;;
41141;SDS011;63666;52.284;20.890;2023-06-14T19:55:11;6.40;;;3.80;;
41141;SDS011;63666;52.284;20.890;2023-06-14T19:57:46;6.10;;;4.10;;
41141;SDS011;63666;52.284;20.890;2023-06-14T20:00:20;5.90;;;3.90;;
41141;SDS011;63666;52.284;20.890;2023-06-14T20:02:53;6.40;;;4.30;;
41141;SDS011;63666;52.284;20.890;2023-06-14T20:05:30;5.70;;;4.00;;
41141;SDS011;63666;52.284;20.890;2023-06-14T20:08:03;7.40;;;4.10;;
41141;SDS011;63666;52.284;20.890;2023-06-14T20:10:36;7.10;;;3.90;;
41141;SDS011;63666;52.284;20.890;2023-06-14T20:13:10;6.20;;;4.10;;
41141;SDS011;63666;52.284;20.890;2023-06-14T20:15:44;6.20;;;3.90;;
41141;SDS011;63666;52.284;20.890;2023-06-14T20:18:22;5.80;;;4.00;;
41141;SDS011;63666;52.284;20.890;2023-06-14T20:20:59;6.30;;;4.10;;
41141;SDS011;63666;52.284;20.890;2023-06-14T20:23:35;6.40;;;4.10;;
41141;SDS011;63666;52.284;20.890;2023-06-14T20:26:09;6.40;;;4.00;;
41141;SDS011;63666;52.284;20.890;2023-06-14T20:28:42;6.50;;;4.00;;
41141;SDS011;63666;52.284;20.890;2023-06-14T20:31:16;6.90;;;4.20;;
41141;SDS011;63666;52.284;20.890;2023-06-14T20:33:51;6.30;;;4.30;;
41141;SDS011;63666;52.284;20.890;2023-06-14T20:36:24;6.20;;;4.00;;
41141;SDS011;63666;52.284;20.890;2023-06-14T20:39:00;6.00;;;3.90;;
41141;SDS011;63666;52.284;20.890;2023-06-14T20:41:35;6.00;;;4.10;;
41141;SDS011;63666;52.284;20.890;2023-06-14T20:44:08;6.30;;;4.00;;
41141;SDS011;63666;52.284;20.890;2023-06-14T20:46:44;7.00;;;4.30;;
41141;SDS011;63666;52.284;20.890;2023-06-14T20:49:20;6.20;;;4.40;;
41141;SDS011;63666;52.284;20.890;2023-06-14T20:51:53;6.30;;;4.10;;
41141;SDS011;63666;52.284;20.890;2023-06-14T20:54:26;6.20;;;4.10;;
41141;SDS011;63666;52.284;20.890;2023-06-14T20:57:00;5.90;;;4.30;;
41141;SDS011;63666;52.284;20.890;2023-06-14T20:59:34;7.20;;;4.00;;
41141;SDS011;63666;52.284;20.890;2023-06-14T21:02:11;6.10;;;4.00;;
41141;SDS011;63666;52.284;20.890;2023-06-14T21:04:49;6.70;;;4.20;;
41141;SDS011;63666;52.284;20.890;2023-06-14T21:07:26;5.80;;;4.10;;
41141;SDS011;63666;52.284;20.890;2023-06-14T21:09:59;6.40;;;4.20;;
41141;SDS011;63666;52.284;20.890;2023-06-14T21:12:33;6.00;;;3.90;;
41141;SDS011;63666;52.284;20.890;2023-06-14T21:15:08;6.10;;;3.70;;
41141;SDS011;63666;52.284;20.890;2023-06-14T21:17:42;6.00;;;3.90;;
41141;SDS011;63666;52.284;20.890;2023-06-14T21:20:15;5.60;;;3.90;;
41141;SDS011;63666;52.284;20.890;2023-06-14T21:22:49;6.90;;;4.30;;
41141;SDS011;63666;52.284;20.890;2023-06-14T21:25:22;8.00;;;4.30;;
41141;SDS011;63666;52.284;20.890;2023-06-14T21:27:55;6.50;;;4.30;;
41141;SDS011;63666;52.284;20.890;2023-06-14T21:30:35;6.00;;;3.90;;
41141;SDS011;63666;52.284;20.890;2023-06-14T21:33:09;6.70;;;4.20;;
41141;SDS011;63666;52.284;20.890;2023-06-14T21:35:43;6.90;;;4.30;;
41141;SDS011;63666;52.284;20.890;2023-06-14T21:38:16;6.00;;;3.90;;
41141;SDS011;63666;52.284;20.890;2023-06-14T21:40:49;7.90;;;4.30;;
41141;SDS011;63666;52.284;20.890;2023-06-14T21:43:22;7.80;;;4.40;;
41141;SDS011;63666;52.284;20.890;2023-06-14T21:46:00;6.30;;;4.20;;
41141;SDS011;63666;52.284;20.890;2023-06-14T21:48:35;7.30;;;4.20;;
41141;SDS011;63666;52.284;20.890;2023-06-14T21:51:08;7.30;;;4.10;;
41141;SDS011;63666;52.284;20.890;2023-06-14T21:53:42;6.40;;;4.20;;
41141;SDS011;63666;52.284;20.890;2023-06-14T21:56:19;6.80;;;4.00;;
41141;SDS011;63666;52.284;20.890;2023-06-14T21:58:55;6.00;;;4.10;;
41141;SDS011;63666;52.284;20.890;2023-06-14T22:01:29;6.80;;;3.90;;
41141;SDS011;63666;52.284;20.890;2023-06-14T22:04:02;5.80;;;4.20;;
41141;SDS011;63666;52.284;20.890;2023-06-14T22:06:38;6.40;;;4.30;;
41141;SDS011;63666;52.284;20.890;2023-06-14T22:09:14;6.10;;;4.20;;
41141;SDS011;63666;52.284;20.890;2023-06-14T22:11:48;5.30;;;4.00;;
41141;SDS011;63666;52.284;20.890;2023-06-14T22:14:22;5.70;;;3.80;;
41141;SDS011;63666;52.284;20.890;2023-06-14T22:16:55;5.90;;;3.90;;
41141;SDS011;63666;52.284;20.890;2023-06-14T22:19:29;5.50;;;3.90;;
41141;SDS011;63666;52.284;20.890;2023-06-14T22:22:06;5.70;;;4.00;;
41141;SDS011;63666;52.284;20.890;2023-06-14T22:24:39;6.00;;;3.80;;
41141;SDS011;63666;52.284;20.890;2023-06-14T22:27:13;6.90;;;4.20;;
41141;SDS011;63666;52.284;20.890;2023-06-14T22:29:51;6.30;;;4.10;;
41141;SDS011;63666;52.284;20.890;2023-06-14T22:32:27;6.80;;;4.10;;
41141;SDS011;63666;52.284;20.890;2023-06-14T22:35:07;6.30;;;4.10;;
41141;SDS011;63666;52.284;20.890;2023-06-14T22:37:43;6.50;;;4.20;;
41141;SDS011;63666;52.284;20.890;2023-06-14T22:40:16;5.70;;;4.10;;
41141;SDS011;63666;52.284;20.890;2023-06-14T22:42:50;5.70;;;3.90;;
41141;SDS011;63666;52.284;20.890;2023-06-14T22:45:24;5.50;;;3.90;;
41141;SDS011;63666;52.284;20.890;2023-06-14T22:47:59;5.80;;;3.90;;
41141;SDS011;63666;52.284;20.890;2023-06-14T22:50:33;5.50;;;4.00;;
41141;SDS011;63666;52.284;20.890;2023-06-14T22:53:06;6.10;;;4.00;;
41141;SDS011;63666;52.284;20.890;2023-06-14T22:55:40;7.50;;;4.50;;
41141;SDS011;63666;52.284;20.890;2023-06-14T22:58:13;8.70;;;4.80;;
41141;SDS011;63666;52.284;20.890;2023-06-14T23:00:47;7.10;;;4.60;;
41141;SDS011;63666;52.284;20.890;2023-06-14T23:03:22;8.00;;;4.50;;
41141;SDS011;63666;52.284;20.890;2023-06-14T23:05:55;7.60;;;4.40;;
41141;SDS011;63666;52.284;20.890;2023-06-14T23:08:31;8.30;;;4.50;;
41141;SDS011;63666;52.284;20.890;2023-06-14T23:11:04;6.40;;;4.00;;
41141;SDS011;63666;52.284;20.890;2023-06-14T23:13:39;8.00;;;4.30;;
41141;SDS011;63666;52.284;20.890;2023-06-14T23:16:14;6.60;;;4.20;;
41141;SDS011;63666;52.284;20.890;2023-06-14T23:18:50;6.10;;;4.00;;
41141;SDS011;63666;52.284;20.890;2023-06-14T23:21:26;7.00;;;4.30;;
41141;SDS011;63666;52.284;20.890;2023-06-14T23:24:00;6.60;;;4.10;;
41141;SDS011;63666;52.284;20.890;2023-06-14T23:26:33;6.50;;;4.10;;
41141;SDS011;63666;52.284;20.890;2023-06-14T23:29:06;6.00;;;4.30;;
41141;SDS011;63666;52.284;20.890;2023-06-14T23:31:40;6.60;;;4.00;;
41141;SDS011;63666;52.284;20.890;2023-06-14T23:34:14;7.00;;;4.00;;
41141;SDS011;63666;52.284;20.890;2023-06-14T23:36:48;6.50;;;3.90;;
41141;SDS011;63666;52.284;20.890;2023-06-14T23:39:22;6.20;;;4.00;;
41141;SDS011;63666;52.284;20.890;2023-06-14T23:41:56;6.40;;;4.30;;
41141;SDS011;63666;52.284;20.890;2023-06-14T23:44:29;7.00;;;3.90;;
41141;SDS011;63666;52.284;20.890;2023-06-14T23:47:08;6.50;;;4.30;;
41141;SDS011;63666;52.284;20.890;2023-06-14T23:49:41;6.40;;;4.40;;
41141;SDS011;63666;52.284;20.890;2023-06-14T23:52:16;6.80;;;4.20;;
41141;SDS011;63666;52.284;20.890;2023-06-14T23:54:51;5.90;;;4.20;;
41141;SDS011;63666;52.284;20.890;2023-06-14T23:57:25;5.60;;;3.80;;
41141;SDS011;63666;52.284;20.890;2023-06-14T23:59:58;5.80;;;3.90;;
